createdAt,value
2018-09-20T00:00:35.329Z,1012.54
2018-09-20T00:01:35.316Z,1012.55
2018-09-20T00:02:35.305Z,1012.54
2018-09-20T00:03:35.318Z,1012.51
2018-09-20T00:04:35.284Z,1012.47
2018-09-20T00:05:35.272Z,1012.50
2018-09-20T00:06:35.262Z,1012.49
2018-09-20T00:07:35.285Z,1012.47
2018-09-20T00:08:35.263Z,1012.50
2018-09-20T00:09:35.229Z,1012.49
2018-09-20T00:10:35.216Z,1012.44
2018-09-20T00:11:35.205Z,1012.44
2018-09-20T00:12:35.193Z,1012.42
2018-09-20T00:13:35.208Z,1012.34
2018-09-20T00:14:35.173Z,1012.38
2018-09-20T00:15:35.162Z,1012.35
2018-09-20T00:16:35.149Z,1012.31
2018-09-20T00:17:35.140Z,1012.33
2018-09-20T00:18:35.152Z,1012.30
2018-09-20T00:19:35.116Z,1012.33
2018-09-20T00:20:35.107Z,1012.28
2018-09-20T00:21:35.094Z,1012.31
2018-09-20T00:22:35.083Z,1012.28
2018-09-20T00:23:35.097Z,1012.27
2018-09-20T00:24:35.060Z,1012.26
2018-09-20T00:25:35.049Z,1012.22
2018-09-20T00:26:35.045Z,1012.25
2018-09-20T00:27:35.028Z,1012.22
2018-09-20T00:28:35.041Z,1012.22
2018-09-20T00:29:35.007Z,1012.25
2018-09-20T00:30:34.994Z,1012.22
2018-09-20T00:31:34.984Z,1012.17
2018-09-20T00:32:34.975Z,1012.20
2018-09-20T00:33:34.984Z,1012.22
2018-09-20T00:34:34.952Z,1012.17
2018-09-20T00:35:34.942Z,1012.13
2018-09-20T00:36:34.928Z,1012.12
2018-09-20T00:37:34.916Z,1012.11
2018-09-20T00:38:34.931Z,1012.09
2018-09-20T00:39:34.896Z,1012.07
2018-09-20T00:40:34.884Z,1012.07
2018-09-20T00:41:34.876Z,1012.12
2018-09-20T00:42:34.861Z,1012.10
2018-09-20T00:43:34.873Z,1012.14
2018-09-20T00:44:34.838Z,1012.13
2018-09-20T00:45:34.827Z,1012.15
2018-09-20T00:46:34.817Z,1012.11
2018-09-20T00:47:34.805Z,1012.14
2018-09-20T00:48:34.818Z,1012.12
2018-09-20T00:49:34.785Z,1012.10
2018-09-20T00:50:34.773Z,1012.11
2018-09-20T00:51:34.763Z,1012.10
2018-09-20T00:52:34.752Z,1012.08
2018-09-20T00:53:34.761Z,1012.13
2018-09-20T00:54:34.728Z,1012.11
2018-09-20T00:55:34.716Z,1012.14
2018-09-20T00:56:34.706Z,1012.15
2018-09-20T00:57:34.695Z,1012.24
2018-09-20T00:58:34.706Z,1012.23
2018-09-20T00:59:34.674Z,1012.25
2018-09-20T01:00:34.661Z,1012.24
2018-09-20T01:01:34.650Z,1012.19
2018-09-20T01:02:34.637Z,1012.21
2018-09-20T01:03:34.650Z,1012.24
2018-09-20T01:04:34.615Z,1012.20
2018-09-20T01:05:34.605Z,1012.21
2018-09-20T01:06:34.594Z,1012.22
2018-09-20T01:07:34.582Z,1012.21
2018-09-20T01:08:34.573Z,1012.23
2018-09-20T01:09:34.584Z,1012.21
2018-09-20T01:10:34.550Z,1012.22
2018-09-20T01:11:34.537Z,1012.21
2018-09-20T01:12:34.526Z,1012.18
2018-09-20T01:13:34.543Z,1012.20
2018-09-20T01:14:34.504Z,1012.22
2018-09-20T01:15:34.493Z,1012.18
2018-09-20T01:16:34.482Z,1012.22
2018-09-20T01:17:34.473Z,1012.18
2018-09-20T01:18:34.464Z,1012.17
2018-09-20T01:19:34.473Z,1012.15
2018-09-20T01:20:34.438Z,1012.17
2018-09-20T01:21:34.428Z,1012.18
2018-09-20T01:22:34.416Z,1012.18
2018-09-20T01:23:34.407Z,1012.21
2018-09-20T01:24:34.419Z,1012.16
2018-09-20T01:25:34.383Z,1012.18
2018-09-20T01:26:34.375Z,1012.19
2018-09-20T01:27:34.360Z,1012.18
2018-09-20T01:28:34.353Z,1012.14
2018-09-20T01:29:34.364Z,1012.14
2018-09-20T01:30:34.326Z,1012.18
2018-09-20T01:31:34.316Z,1012.14
2018-09-20T01:32:34.307Z,1012.19
2018-09-20T01:33:34.293Z,1012.16
2018-09-20T01:34:34.307Z,1012.18
2018-09-20T01:35:34.310Z,1012.15
2018-09-20T01:36:34.260Z,1012.16
2018-09-20T01:37:34.249Z,1012.14
2018-09-20T01:38:34.239Z,1012.15
2018-09-20T01:39:34.254Z,1012.12
2018-09-20T01:40:34.216Z,1012.13
2018-09-20T01:41:34.205Z,1012.11
2018-09-20T01:42:34.194Z,1012.12
2018-09-20T01:43:34.183Z,1012.10
2018-09-20T01:44:34.199Z,1012.10
2018-09-20T01:45:34.160Z,1012.12
2018-09-20T01:46:34.152Z,1012.14
2018-09-20T01:47:34.137Z,1012.16
2018-09-20T01:48:34.127Z,1012.15
2018-09-20T01:49:34.140Z,1012.11
2018-09-20T01:50:34.105Z,1012.12
2018-09-20T01:51:34.093Z,1012.12
2018-09-20T01:52:34.082Z,1012.14
2018-09-20T01:53:34.071Z,1012.11
2018-09-20T01:54:34.085Z,1012.08
2018-09-20T01:55:34.051Z,1012.08
2018-09-20T01:56:34.037Z,1012.12
2018-09-20T01:57:34.038Z,1012.10
2018-09-20T01:58:34.018Z,1012.10
2018-09-20T01:59:34.027Z,1012.05
2018-09-20T02:00:33.994Z,1012.06
2018-09-20T02:01:33.982Z,1012.07
2018-09-20T02:02:33.972Z,1012.05
2018-09-20T02:03:33.958Z,1012.06
2018-09-20T02:04:33.973Z,1012.04
2018-09-20T02:05:33.937Z,1012.05
2018-09-20T02:06:33.925Z,1012.06
2018-09-20T02:07:33.915Z,1012.10
2018-09-20T02:08:33.904Z,1012.04
2018-09-20T02:09:33.916Z,1012.06
2018-09-20T02:10:33.883Z,1012.03
2018-09-20T02:11:33.873Z,1012.06
2018-09-20T02:12:33.860Z,1012.09
2018-09-20T02:13:33.848Z,1012.07
2018-09-20T02:14:33.862Z,1012.14
2018-09-20T02:15:33.826Z,1012.14
2018-09-20T02:16:33.816Z,1012.12
2018-09-20T02:17:33.804Z,1012.15
2018-09-20T02:18:33.793Z,1012.12
2018-09-20T02:19:33.805Z,1012.12
2018-09-20T02:20:33.775Z,1012.18
2018-09-20T02:21:33.759Z,1012.18
2018-09-20T02:22:33.749Z,1012.21
2018-09-20T02:23:33.738Z,1012.17
2018-09-20T02:24:33.751Z,1012.17
2018-09-20T02:25:33.715Z,1012.16
2018-09-20T02:26:33.703Z,1012.16
2018-09-20T02:27:33.694Z,1012.19
2018-09-20T02:28:33.684Z,1012.13
2018-09-20T02:29:33.696Z,1012.16
2018-09-20T02:30:33.664Z,1012.14
2018-09-20T02:31:33.649Z,1012.11
2018-09-20T02:32:33.643Z,1012.18
2018-09-20T02:33:33.628Z,1012.15
2018-09-20T02:34:33.643Z,1012.17
2018-09-20T02:35:33.605Z,1012.15
2018-09-20T02:36:33.594Z,1012.18
2018-09-20T02:37:33.584Z,1012.24
2018-09-20T02:38:33.573Z,1012.22
2018-09-20T02:39:33.591Z,1012.27
2018-09-20T02:40:33.550Z,1012.23
2018-09-20T02:41:33.540Z,1012.23
2018-09-20T02:42:33.532Z,1012.26
2018-09-20T02:43:33.518Z,1012.26
2018-09-20T02:44:33.530Z,1012.30
2018-09-20T02:45:33.496Z,1012.28
2018-09-20T02:46:33.484Z,1012.31
2018-09-20T02:47:33.474Z,1012.30
2018-09-20T02:48:33.462Z,1012.25
2018-09-20T02:49:33.452Z,1012.28
2018-09-20T02:50:33.467Z,1012.27
2018-09-20T02:51:33.428Z,1012.32
2018-09-20T02:52:33.419Z,1012.30
2018-09-20T02:53:33.406Z,1012.28
2018-09-20T02:54:33.420Z,1012.25
2018-09-20T02:55:33.385Z,1012.29
2018-09-20T02:56:33.374Z,1012.25
2018-09-20T02:57:33.362Z,1012.27
2018-09-20T02:58:33.365Z,1012.28
2018-09-20T02:59:33.341Z,1012.24
2018-09-20T03:00:33.356Z,1012.25
2018-09-20T03:01:33.319Z,1012.23
2018-09-20T03:02:33.307Z,1012.23
2018-09-20T03:03:33.296Z,1012.22
2018-09-20T03:04:33.285Z,1012.20
2018-09-20T03:05:33.299Z,1012.16
2018-09-20T03:06:33.262Z,1012.18
2018-09-20T03:07:33.250Z,1012.20
2018-09-20T03:08:33.238Z,1012.19
2018-09-20T03:09:33.233Z,1012.25
2018-09-20T03:10:33.240Z,1012.19
2018-09-20T03:11:33.213Z,1012.22
2018-09-20T03:12:33.195Z,1012.24
2018-09-20T03:13:33.183Z,1012.22
2018-09-20T03:14:33.173Z,1012.18
2018-09-20T03:15:33.185Z,1012.23
2018-09-20T03:16:33.150Z,1012.28
2018-09-20T03:17:33.143Z,1012.30
2018-09-20T03:18:33.129Z,1012.26
2018-09-20T03:19:33.118Z,1012.25
2018-09-20T03:20:33.133Z,1012.25
2018-09-20T03:21:33.095Z,1012.26
2018-09-20T03:22:33.085Z,1012.26
2018-09-20T03:23:33.076Z,1012.24
2018-09-20T03:24:33.063Z,1012.22
2018-09-20T03:25:33.076Z,1012.22
2018-09-20T03:26:33.044Z,1012.16
2018-09-20T03:27:33.033Z,1012.19
2018-09-20T03:28:33.018Z,1012.19
2018-09-20T03:29:33.008Z,1012.18
2018-09-20T03:30:33.166Z,1012.17
2018-09-20T03:31:32.984Z,1012.13
2018-09-20T03:32:32.978Z,1012.20
2018-09-20T03:33:32.964Z,1012.11
2018-09-20T03:34:32.954Z,1012.13
2018-09-20T03:35:32.967Z,1012.08
2018-09-20T03:36:32.931Z,1012.08
2018-09-20T03:37:32.920Z,1012.07
2018-09-20T03:38:32.909Z,1012.06
2018-09-20T03:39:32.903Z,1012.02
2018-09-20T03:40:32.911Z,1012.07
2018-09-20T03:41:32.877Z,1012.07
2018-09-20T03:42:32.865Z,1012.07
2018-09-20T03:43:32.854Z,1012.05
2018-09-20T03:44:32.842Z,1012.02
2018-09-20T03:45:32.858Z,1012.01
2018-09-20T03:46:32.819Z,1012.04
2018-09-20T03:47:32.810Z,1012.05
2018-09-20T03:48:32.798Z,1011.99
2018-09-20T03:49:32.787Z,1011.98
2018-09-20T03:50:32.802Z,1011.97
2018-09-20T03:51:32.765Z,1011.97
2018-09-20T03:52:32.754Z,1012.00
2018-09-20T03:53:32.745Z,1011.99
2018-09-20T03:54:32.732Z,1011.98
2018-09-20T03:55:32.745Z,1012.02
2018-09-20T03:56:32.711Z,1011.99
2018-09-20T03:57:32.701Z,1012.01
2018-09-20T03:58:32.686Z,1012.03
2018-09-20T03:59:32.686Z,1012.06
2018-09-20T04:00:32.690Z,1012.03
2018-09-20T04:01:32.655Z,1012.02
2018-09-20T04:02:32.643Z,1012.04
2018-09-20T04:03:32.631Z,1012.06
2018-09-20T04:04:32.620Z,1012.02
2018-09-20T04:05:32.634Z,1011.99
2018-09-20T04:06:32.598Z,1012.01
2018-09-20T04:07:32.587Z,1012.00
2018-09-20T04:08:32.578Z,1011.98
2018-09-20T04:09:32.592Z,1011.97
2018-09-20T04:10:32.581Z,1011.95
2018-09-20T04:11:32.545Z,1011.99
2018-09-20T04:12:32.534Z,1011.97
2018-09-20T04:13:32.525Z,1011.98
2018-09-20T04:14:32.512Z,1012.01
2018-09-20T04:15:32.524Z,1011.98
2018-09-20T04:16:32.488Z,1012.01
2018-09-20T04:17:32.478Z,1011.98
2018-09-20T04:18:32.465Z,1012.05
2018-09-20T04:19:32.454Z,1012.01
2018-09-20T04:20:32.466Z,1011.96
2018-09-20T04:21:32.431Z,1011.91
2018-09-20T04:22:32.421Z,1011.97
2018-09-20T04:23:32.411Z,1011.96
2018-09-20T04:24:32.401Z,1011.94
2018-09-20T04:25:32.413Z,1011.96
2018-09-20T04:26:32.381Z,1011.95
2018-09-20T04:27:32.367Z,1011.92
2018-09-20T04:28:32.360Z,1011.95
2018-09-20T04:29:32.344Z,1011.95
2018-09-20T04:30:32.335Z,1011.98
2018-09-20T04:31:32.358Z,1011.96
2018-09-20T04:32:32.311Z,1011.95
2018-09-20T04:33:32.300Z,1011.98
2018-09-20T04:34:32.292Z,1012.04
2018-09-20T04:35:32.304Z,1012.03
2018-09-20T04:36:32.266Z,1012.04
2018-09-20T04:37:32.255Z,1012.05
2018-09-20T04:38:32.246Z,1012.07
2018-09-20T04:39:32.234Z,1012.05
2018-09-20T04:40:32.224Z,1012.04
2018-09-20T04:41:32.236Z,1012.08
2018-09-20T04:42:32.201Z,1012.09
2018-09-20T04:43:32.189Z,1012.07
2018-09-20T04:44:32.179Z,1012.12
2018-09-20T04:45:32.170Z,1012.11
2018-09-20T04:46:32.187Z,1012.15
2018-09-20T04:47:32.145Z,1012.16
2018-09-20T04:48:32.134Z,1012.14
2018-09-20T04:49:32.123Z,1012.15
2018-09-20T04:50:32.114Z,1012.20
2018-09-20T04:51:32.125Z,1012.18
2018-09-20T04:52:32.090Z,1012.19
2018-09-20T04:53:32.081Z,1012.14
2018-09-20T04:54:32.068Z,1012.15
2018-09-20T04:55:32.058Z,1012.21
2018-09-20T04:56:32.073Z,1012.15
2018-09-20T04:57:32.036Z,1012.18
2018-09-20T04:58:32.024Z,1012.18
2018-09-20T04:59:32.014Z,1012.22
2018-09-20T05:00:32.017Z,1012.16
2018-09-20T05:01:32.015Z,1012.20
2018-09-20T05:02:31.982Z,1012.16
2018-09-20T05:03:31.968Z,1012.18
2018-09-20T05:04:31.957Z,1012.17
2018-09-20T05:05:31.948Z,1012.22
2018-09-20T05:06:31.960Z,1012.19
2018-09-20T05:07:31.925Z,1012.16
2018-09-20T05:08:31.914Z,1012.18
2018-09-20T05:09:31.938Z,1012.16
2018-09-20T05:10:31.893Z,1012.15
2018-09-20T05:11:31.907Z,1012.15
2018-09-20T05:12:31.871Z,1012.20
2018-09-20T05:13:31.859Z,1012.26
2018-09-20T05:14:31.848Z,1012.23
2018-09-20T05:15:31.836Z,1012.26
2018-09-20T05:16:31.849Z,1012.27
2018-09-20T05:17:31.815Z,1012.20
2018-09-20T05:18:31.803Z,1012.20
2018-09-20T05:19:31.794Z,1012.23
2018-09-20T05:20:31.789Z,1012.17
2018-09-20T05:21:31.794Z,1012.17
2018-09-20T05:22:31.759Z,1012.17
2018-09-20T05:23:31.749Z,1012.17
2018-09-20T05:24:31.738Z,1012.18
2018-09-20T05:25:31.726Z,1012.20
2018-09-20T05:26:31.739Z,1012.24
2018-09-20T05:27:31.704Z,1012.23
2018-09-20T05:28:31.693Z,1012.23
2018-09-20T05:29:31.683Z,1012.18
2018-09-20T05:30:31.673Z,1012.13
2018-09-20T05:31:31.685Z,1012.13
2018-09-20T05:32:31.650Z,1012.17
2018-09-20T05:33:31.638Z,1012.15
2018-09-20T05:34:31.631Z,1012.19
2018-09-20T05:35:31.689Z,1012.16
2018-09-20T05:36:31.630Z,1012.13
2018-09-20T05:37:31.594Z,1012.10
2018-09-20T05:38:31.586Z,1012.10
2018-09-20T05:39:31.573Z,1012.12
2018-09-20T05:40:31.562Z,1012.12
2018-09-20T05:41:31.594Z,1012.17
2018-09-20T05:42:31.540Z,1012.16
2018-09-20T05:43:31.588Z,1012.15
2018-09-20T05:44:31.517Z,1012.17
2018-09-20T05:45:31.507Z,1012.17
2018-09-20T05:46:31.522Z,1012.13
2018-09-20T05:47:31.487Z,1012.13
2018-09-20T05:48:31.475Z,1012.11
2018-09-20T05:49:31.462Z,1012.13
2018-09-20T05:50:31.454Z,1012.08
2018-09-20T05:51:31.467Z,1012.13
2018-09-20T05:52:31.430Z,1012.14
2018-09-20T05:53:31.419Z,1012.15
2018-09-20T05:54:31.411Z,1012.15
2018-09-20T05:55:31.398Z,1012.08
2018-09-20T05:56:31.412Z,1012.15
2018-09-20T05:57:31.374Z,1012.14
2018-09-20T05:58:31.364Z,1012.12
2018-09-20T05:59:31.355Z,1012.11
2018-09-20T06:00:31.342Z,1012.12
2018-09-20T06:01:36.297Z,1012.13
2018-09-20T06:02:31.320Z,1012.11
2018-09-20T06:03:31.310Z,1012.11
2018-09-20T06:04:31.298Z,1012.14
2018-09-20T06:05:31.308Z,1012.10
2018-09-20T06:06:31.300Z,1012.14
2018-09-20T06:07:31.267Z,1012.13
2018-09-20T06:08:31.254Z,1012.18
2018-09-20T06:09:31.243Z,1012.16
2018-09-20T06:10:31.235Z,1012.17
2018-09-20T06:11:31.248Z,1012.16
2018-09-20T06:12:31.212Z,1012.16
2018-09-20T06:13:31.202Z,1012.21
2018-09-20T06:14:31.189Z,1012.20
2018-09-20T06:15:31.177Z,1012.22
2018-09-20T06:16:31.190Z,1012.22
2018-09-20T06:17:31.156Z,1012.21
2018-09-20T06:18:31.145Z,1012.22
2018-09-20T06:19:31.135Z,1012.21
2018-09-20T06:20:31.121Z,1012.22
2018-09-20T06:21:31.113Z,1012.22
2018-09-20T06:22:31.123Z,1012.22
2018-09-20T06:23:31.091Z,1012.20
2018-09-20T06:24:31.077Z,1012.24
2018-09-20T06:25:31.066Z,1012.21
2018-09-20T06:26:31.079Z,1012.25
2018-09-20T06:27:31.058Z,1012.22
2018-09-20T06:28:31.034Z,1012.22
2018-09-20T06:29:31.024Z,1012.25
2018-09-20T06:30:31.012Z,1012.20
2018-09-20T06:31:31.007Z,1012.21
2018-09-20T06:32:31.016Z,1012.22
2018-09-20T06:33:30.979Z,1012.22
2018-09-20T06:34:30.968Z,1012.24
2018-09-20T06:35:30.956Z,1012.21
2018-09-20T06:36:30.947Z,1012.25
2018-09-20T06:37:30.959Z,1012.24
2018-09-20T06:38:30.927Z,1012.21
2018-09-20T06:39:30.913Z,1012.24
2018-09-20T06:40:30.903Z,1012.20
2018-09-20T06:41:30.891Z,1012.23
2018-09-20T06:42:30.904Z,1012.25
2018-09-20T06:43:30.877Z,1012.27
2018-09-20T06:44:30.857Z,1012.26
2018-09-20T06:45:30.845Z,1012.27
2018-09-20T06:46:30.834Z,1012.25
2018-09-20T06:47:30.850Z,1012.28
2018-09-20T06:48:30.813Z,1012.29
2018-09-20T06:49:30.803Z,1012.27
2018-09-20T06:50:30.845Z,1012.29
2018-09-20T06:51:30.779Z,1012.28
2018-09-20T06:52:30.793Z,1012.26
2018-09-20T06:53:30.756Z,1012.27
2018-09-20T06:54:30.746Z,1012.28
2018-09-20T06:55:30.736Z,1012.28
2018-09-20T06:56:30.753Z,1012.30
2018-09-20T06:57:30.737Z,1012.27
2018-09-20T06:58:30.702Z,1012.28
2018-09-20T06:59:30.692Z,1012.27
2018-09-20T07:00:30.681Z,1012.26
2018-09-20T07:01:30.669Z,1012.31
2018-09-20T07:02:30.682Z,1012.33
2018-09-20T07:03:30.646Z,1012.32
2018-09-20T07:04:30.634Z,1012.38
2018-09-20T07:05:30.623Z,1012.34
2018-09-20T07:06:30.612Z,1012.34
2018-09-20T07:07:30.625Z,1012.33
2018-09-20T07:08:30.595Z,1012.35
2018-09-20T07:09:30.579Z,1012.36
2018-09-20T07:10:30.567Z,1012.37
2018-09-20T07:11:30.556Z,1012.34
2018-09-20T07:12:30.570Z,1012.34
2018-09-20T07:13:30.585Z,1012.37
2018-09-20T07:14:30.522Z,1012.37
2018-09-20T07:15:30.519Z,1012.32
2018-09-20T07:16:30.503Z,1012.38
2018-09-20T07:17:30.517Z,1012.39
2018-09-20T07:18:30.483Z,1012.39
2018-09-20T07:19:30.466Z,1012.44
2018-09-20T07:20:30.456Z,1012.39
2018-09-20T07:21:30.445Z,1012.43
2018-09-20T07:22:30.458Z,1012.42
2018-09-20T07:23:30.424Z,1012.40
2018-09-20T07:24:30.414Z,1012.38
2018-09-20T07:25:30.443Z,1012.36
2018-09-20T07:26:30.391Z,1012.36
2018-09-20T07:27:30.403Z,1012.40
2018-09-20T07:28:30.369Z,1012.37
2018-09-20T07:29:30.359Z,1012.35
2018-09-20T07:30:30.346Z,1012.30
2018-09-20T07:31:30.336Z,1012.34
2018-09-20T07:32:30.349Z,1012.33
2018-09-20T07:33:30.314Z,1012.36
2018-09-20T07:34:30.301Z,1012.28
2018-09-20T07:35:30.290Z,1012.35
2018-09-20T07:36:30.280Z,1012.31
2018-09-20T07:37:30.292Z,1012.33
2018-09-20T07:38:30.257Z,1012.35
2018-09-20T07:39:30.248Z,1012.35
2018-09-20T07:40:30.235Z,1012.31
2018-09-20T07:41:30.223Z,1012.37
2018-09-20T07:42:30.237Z,1012.30
2018-09-20T07:43:30.247Z,1012.32
2018-09-20T07:44:30.189Z,1012.28
2018-09-20T07:45:30.179Z,1012.29
2018-09-20T07:46:30.168Z,1012.26
2018-09-20T07:47:30.181Z,1012.31
2018-09-20T07:48:30.146Z,1012.29
2018-09-20T07:49:30.133Z,1012.32
2018-09-20T07:50:30.123Z,1012.30
2018-09-20T07:51:30.122Z,1012.34
2018-09-20T07:52:30.127Z,1012.35
2018-09-20T07:53:30.092Z,1012.32
2018-09-20T07:54:30.079Z,1012.34
2018-09-20T07:55:30.075Z,1012.31
2018-09-20T07:56:30.072Z,1012.40
2018-09-20T07:57:30.071Z,1012.39
2018-09-20T07:58:30.036Z,1012.38
2018-09-20T07:59:30.025Z,1012.35
2018-09-20T08:00:30.014Z,1012.28
2018-09-20T08:01:30.014Z,1012.38
2018-09-20T08:02:30.015Z,1012.32
2018-09-20T08:03:29.981Z,1012.34
2018-09-20T08:04:29.970Z,1012.33
2018-09-20T08:05:29.959Z,1012.36
2018-09-20T08:06:29.948Z,1012.39
2018-09-20T08:07:29.967Z,1012.35
2018-09-20T08:08:29.931Z,1012.32
2018-09-20T08:09:29.914Z,1012.31
2018-09-20T08:10:29.905Z,1012.37
2018-09-20T08:11:29.891Z,1012.35
2018-09-20T08:12:29.904Z,1012.29
2018-09-20T08:13:29.869Z,1012.29
2018-09-20T08:14:29.857Z,1012.30
2018-09-20T08:15:29.848Z,1012.29
2018-09-20T08:16:29.835Z,1012.26
2018-09-20T08:17:29.824Z,1012.26
2018-09-20T08:18:29.838Z,1012.26
2018-09-20T08:19:29.803Z,1012.27
2018-09-20T08:20:29.792Z,1012.24
2018-09-20T08:21:29.804Z,1012.23
2018-09-20T08:22:29.770Z,1012.21
2018-09-20T08:23:29.783Z,1012.25
2018-09-20T08:24:29.748Z,1012.31
2018-09-20T08:25:29.739Z,1012.29
2018-09-20T08:26:29.919Z,1012.36
2018-09-20T08:27:29.714Z,1012.33
2018-09-20T08:28:29.728Z,1012.38
2018-09-20T08:29:29.695Z,1012.36
2018-09-20T08:30:29.681Z,1012.38
2018-09-20T08:31:29.670Z,1012.34
2018-09-20T08:32:29.659Z,1012.32
2018-09-20T08:33:29.672Z,1012.29
2018-09-20T08:34:29.639Z,1012.31
2018-09-20T08:35:29.631Z,1012.34
2018-09-20T08:36:29.672Z,1012.35
2018-09-20T08:37:29.618Z,1012.34
2018-09-20T08:38:29.619Z,1012.33
2018-09-20T08:39:29.585Z,1012.35
2018-09-20T08:40:29.575Z,1012.31
2018-09-20T08:41:29.565Z,1012.29
2018-09-20T08:42:29.550Z,1012.27
2018-09-20T08:43:29.564Z,1012.27
2018-09-20T08:44:29.529Z,1012.23
2018-09-20T08:45:29.517Z,1012.37
2018-09-20T08:46:29.506Z,1012.30
2018-09-20T08:47:29.496Z,1012.29
2018-09-20T08:48:29.510Z,1012.33
2018-09-20T08:49:29.473Z,1012.35
2018-09-20T08:50:29.463Z,1012.36
2018-09-20T08:51:29.451Z,1012.36
2018-09-20T08:52:29.441Z,1012.39
2018-09-20T08:53:29.453Z,1012.35
2018-09-20T08:54:29.419Z,1012.39
2018-09-20T08:55:29.407Z,1012.39
2018-09-20T08:56:29.398Z,1012.42
2018-09-20T08:57:29.386Z,1012.41
2018-09-20T08:58:29.397Z,1012.42
2018-09-20T08:59:29.364Z,1012.41
2018-09-20T09:00:29.358Z,1012.43
2018-09-20T09:01:29.348Z,1012.39
2018-09-20T09:02:29.331Z,1012.37
2018-09-20T09:03:29.344Z,1012.44
2018-09-20T09:04:29.347Z,1012.41
2018-09-20T09:05:29.298Z,1012.39
2018-09-20T09:06:29.286Z,1012.38
2018-09-20T09:07:29.275Z,1012.41
2018-09-20T09:08:29.288Z,1012.41
2018-09-20T09:09:29.255Z,1012.41
2018-09-20T09:10:29.242Z,1012.37
2018-09-20T09:11:29.232Z,1012.32
2018-09-20T09:12:29.222Z,1012.31
2018-09-20T09:13:29.234Z,1012.23
2018-09-20T09:14:29.200Z,1012.23
2018-09-20T09:15:29.187Z,1012.31
2018-09-20T09:16:29.177Z,1012.17
2018-09-20T09:17:29.168Z,1012.17
2018-09-20T09:18:29.177Z,1012.13
2018-09-20T09:19:29.143Z,1012.16
2018-09-20T09:20:29.132Z,1012.15
2018-09-20T09:21:29.122Z,1012.13
2018-09-20T09:22:29.110Z,1012.14
2018-09-20T09:23:29.123Z,1012.12
2018-09-20T09:24:29.089Z,1012.12
2018-09-20T09:25:29.079Z,1012.08
2018-09-20T09:26:29.072Z,1012.06
2018-09-20T09:27:29.061Z,1012.09
2018-09-20T09:28:29.128Z,1012.12
2018-09-20T09:29:29.035Z,1012.12
2018-09-20T09:30:29.022Z,1012.10
2018-09-20T09:31:29.048Z,1012.10
2018-09-20T09:32:29.002Z,1012.10
2018-09-20T09:33:29.014Z,1012.05
2018-09-20T09:34:28.978Z,1012.09
2018-09-20T09:35:28.967Z,1012.09
2018-09-20T09:36:28.959Z,1012.13
2018-09-20T09:37:28.945Z,1012.16
2018-09-20T09:38:28.937Z,1012.05
2018-09-20T09:39:28.948Z,1012.00
2018-09-20T09:40:28.914Z,1011.94
2018-09-20T09:41:28.903Z,1011.90
2018-09-20T09:42:28.893Z,1011.89
2018-09-20T09:43:28.885Z,1011.88
2018-09-20T09:44:28.892Z,1011.89
2018-09-20T09:45:28.858Z,1011.92
2018-09-20T09:46:28.849Z,1011.88
2018-09-20T09:47:28.845Z,1011.89
2018-09-20T09:48:28.850Z,1011.89
2018-09-20T09:49:28.814Z,1011.82
2018-09-20T09:50:28.803Z,1011.86
2018-09-20T09:51:28.797Z,1011.89
2018-09-20T09:52:28.783Z,1011.79
2018-09-20T09:53:28.772Z,1011.86
2018-09-20T09:54:28.848Z,1011.80
2018-09-20T09:55:28.751Z,1011.78
2018-09-20T09:56:28.737Z,1011.78
2018-09-20T09:57:28.730Z,1011.81
2018-09-20T09:58:28.718Z,1011.82
2018-09-20T09:59:28.731Z,1011.87
2018-09-20T10:00:28.695Z,1011.81
2018-09-20T10:01:28.683Z,1011.79
2018-09-20T10:02:28.684Z,1011.62
2018-09-20T10:03:28.661Z,1011.78
2018-09-20T10:04:28.675Z,1011.73
2018-09-20T10:05:28.639Z,1011.69
2018-09-20T10:06:28.631Z,1011.62
2018-09-20T10:07:28.691Z,1011.68
2018-09-20T10:08:28.610Z,1011.67
2018-09-20T10:09:28.623Z,1011.83
2018-09-20T10:10:28.584Z,1011.64
2018-09-20T10:11:28.573Z,1011.68
2018-09-20T10:12:28.564Z,1011.76
2018-09-20T10:13:28.597Z,1011.70
2018-09-20T10:14:28.565Z,1011.66
2018-09-20T10:15:28.528Z,1011.68
2018-09-20T10:16:28.518Z,1011.67
2018-09-20T10:17:28.508Z,1011.59
2018-09-20T10:18:28.496Z,1011.52
2018-09-20T10:19:28.514Z,1011.65
2018-09-20T10:20:28.475Z,1011.58
2018-09-20T10:21:28.463Z,1011.55
2018-09-20T10:22:28.453Z,1011.52
2018-09-20T10:23:28.444Z,1011.49
2018-09-20T10:24:28.456Z,1011.52
2018-09-20T10:25:28.424Z,1011.50
2018-09-20T10:26:28.407Z,1011.53
2018-09-20T10:27:28.399Z,1011.51
2018-09-20T10:28:28.389Z,1011.49
2018-09-20T10:29:28.400Z,1011.49
2018-09-20T10:30:28.365Z,1011.49
2018-09-20T10:31:28.454Z,1011.47
2018-09-20T10:32:28.345Z,1011.49
2018-09-20T10:33:28.332Z,1011.45
2018-09-20T10:34:28.345Z,1011.49
2018-09-20T10:35:28.309Z,1011.45
2018-09-20T10:36:28.299Z,1011.42
2018-09-20T10:37:28.288Z,1011.39
2018-09-20T10:38:28.278Z,1011.43
2018-09-20T10:39:28.291Z,1011.44
2018-09-20T10:40:28.255Z,1011.42
2018-09-20T10:41:28.245Z,1011.41
2018-09-20T10:42:28.233Z,1011.35
2018-09-20T10:43:28.223Z,1011.33
2018-09-20T10:44:28.236Z,1011.34
2018-09-20T10:45:28.202Z,1011.37
2018-09-20T10:46:28.190Z,1011.35
2018-09-20T10:47:28.178Z,1011.32
2018-09-20T10:48:28.168Z,1011.31
2018-09-20T10:49:28.180Z,1011.39
2018-09-20T10:50:28.145Z,1011.31
2018-09-20T10:51:28.136Z,1011.26
2018-09-20T10:52:28.125Z,1011.24
2018-09-20T10:53:28.112Z,1011.20
2018-09-20T10:54:28.151Z,1011.19
2018-09-20T10:55:28.090Z,1011.18
2018-09-20T10:56:28.079Z,1011.16
2018-09-20T10:57:28.068Z,1011.15
2018-09-20T10:58:28.058Z,1011.13
2018-09-20T10:59:28.069Z,1011.17
2018-09-20T11:00:28.037Z,1011.17
2018-09-20T11:01:28.023Z,1011.14
2018-09-20T11:02:28.014Z,1011.09
2018-09-20T11:03:28.069Z,1011.11
2018-09-20T11:04:28.015Z,1011.06
2018-09-20T11:05:27.980Z,1011.06
2018-09-20T11:06:27.968Z,1011.10
2018-09-20T11:07:27.957Z,1011.06
2018-09-20T11:08:27.949Z,1011.07
2018-09-20T11:09:27.959Z,1011.07
2018-09-20T11:10:27.950Z,1011.04
2018-09-20T11:11:27.915Z,1011.03
2018-09-20T11:12:27.902Z,1010.95
2018-09-20T11:13:27.891Z,1010.98
2018-09-20T11:14:27.908Z,1010.94
2018-09-20T11:15:27.872Z,1010.85
2018-09-20T11:16:27.861Z,1010.91
2018-09-20T11:17:27.847Z,1010.94
2018-09-20T11:18:27.835Z,1010.92
2018-09-20T11:19:27.850Z,1010.95
2018-09-20T11:20:27.812Z,1010.93
2018-09-20T11:21:27.804Z,1010.93
2018-09-20T11:22:27.793Z,1010.92
2018-09-20T11:23:27.783Z,1010.86
2018-09-20T11:24:27.793Z,1010.85
2018-09-20T11:25:27.758Z,1010.79
2018-09-20T11:26:27.747Z,1010.77
2018-09-20T11:27:27.736Z,1010.82
2018-09-20T11:28:27.725Z,1010.78
2018-09-20T11:29:27.748Z,1010.84
2018-09-20T11:30:27.708Z,1010.75
2018-09-20T11:31:27.693Z,1010.83
2018-09-20T11:32:27.682Z,1010.82
2018-09-20T11:33:27.672Z,1010.80
2018-09-20T11:34:27.697Z,1010.77
2018-09-20T11:35:27.650Z,1010.79
2018-09-20T11:36:27.650Z,1010.80
2018-09-20T11:37:27.626Z,1010.79
2018-09-20T11:38:27.615Z,1010.78
2018-09-20T11:39:27.604Z,1010.76
2018-09-20T11:40:27.617Z,1010.75
2018-09-20T11:41:27.582Z,1010.80
2018-09-20T11:42:27.571Z,1010.73
2018-09-20T11:43:27.560Z,1010.75
2018-09-20T11:44:27.549Z,1010.72
2018-09-20T11:45:27.562Z,1010.76
2018-09-20T11:46:27.540Z,1010.73
2018-09-20T11:47:27.516Z,1010.79
2018-09-20T11:48:27.505Z,1010.71
2018-09-20T11:49:27.496Z,1010.78
2018-09-20T11:50:27.513Z,1010.75
2018-09-20T11:51:27.473Z,1010.69
2018-09-20T11:52:27.462Z,1010.66
2018-09-20T11:53:27.454Z,1010.64
2018-09-20T11:54:27.442Z,1010.55
2018-09-20T11:55:27.456Z,1010.49
2018-09-20T11:56:27.419Z,1010.52
2018-09-20T11:57:27.408Z,1010.50
2018-09-20T11:58:27.399Z,1010.50
2018-09-20T11:59:27.386Z,1010.50
2018-09-20T12:00:27.401Z,1010.45
2018-09-20T12:01:27.389Z,1010.56
2018-09-20T12:02:27.353Z,1010.56
2018-09-20T12:03:27.343Z,1010.59
2018-09-20T12:04:27.333Z,1010.46
2018-09-20T12:05:27.345Z,1010.47